Metar z połowy godziny Komunikat METAR ze strony awiacja.imgw.pl Metar G30 EPMM METAR EPMM 240530Z 17008KT 6000 BKN025 M04/M06 Q1025 RMK M042 090 7/7 =